Погода Анкарана неделю

Центральная Анатолия, Турция

02 - 08 сентября
  • 02сентября
    Сегодня
    +17°
    +31°
    Ясно и безоблачно
    ВремяПогодаТемператураВлажностьДавлениеВетер, м/сВероятность осадков
    00:00Ясно и безоблачно+22°C36 %691 мм2.3 м/с2 %
    03:00Ясно и безоблачно+20°C48 %691 мм2.2 м/с2 %
    06:00Ясно и безоблачно+18°C59 %691 мм2.0 м/с2 %
    09:00Ясно и безоблачно+24°C50 %692 мм1.7 м/с2 %
    12:00Ясно и безоблачно+28°C35 %693 мм1.9 м/с2 %
    15:00Ясно и безоблачно+31°C26 %692 мм1.9 м/с2 %
    18:00Ясно и безоблачно+30°C25 %691 мм1.8 м/с2 %
    21:00Ясно и безоблачно+26°C28 %691 мм3.0 м/с2 %
  • 03сентября
    Четверг
    +16°
    +31°
    Ясно и безоблачно
    ВремяПогодаТемператураВлажностьДавлениеВетер, м/сВероятность осадков
    00:00Ясно и безоблачно+22°C35 %691 мм2.7 м/с2 %
    03:00Ясно и безоблачно+20°C47 %690 мм2.4 м/с2 %
    06:00Ясно и безоблачно+17°C58 %690 мм2.0 м/с2 %
    09:00Ясно и безоблачно+23°C44 %691 мм1.9 м/с2 %
    12:00Ясно и безоблачно+28°C31 %691 мм2.2 м/с2 %
    15:00Ясно и безоблачно+31°C25 %690 мм2.1 м/с2 %
    18:00Ясно и безоблачно+30°C22 %688 мм2.3 м/с2 %
    21:00Ясно и безоблачно+25°C24 %688 мм3.1 м/с2 %
  • 04сентября
    Пятница
    +16°
    +30°
    Ясно и безоблачно
    ВремяПогодаТемператураВлажностьДавлениеВетер, м/сВероятность осадков
    00:00Ясно и безоблачно+22°C32 %689 мм2.8 м/с2 %
    03:00Ясно и безоблачно+19°C48 %688 мм2.2 м/с2 %
    06:00Ясно и безоблачно+17°C59 %688 мм2.0 м/с2 %
    09:00Ясно и безоблачно+22°C45 %689 мм1.7 м/с2 %
    12:00Ясно и безоблачно+27°C32 %690 мм2.0 м/с2 %
    15:00Ясно и безоблачно+29°C28 %689 мм2.2 м/с8 %
    18:00Ясно и безоблачно+28°C30 %690 мм2.7 м/с28 %
    21:00Ясно и безоблачно+24°C32 %690 мм3.0 м/с8 %
  • 05сентября
    Суббота
    +16°
    +30°
    Ясно и безоблачно
    ВремяПогодаТемператураВлажностьДавлениеВетер, м/сВероятность осадков
    00:00Небольшая облачность+21°C48 %690 мм2.7 м/с2 %
    03:00Ясно и безоблачно+19°C56 %690 мм2.2 м/с2 %
    06:00Ясно и безоблачно+17°C62 %690 мм2.1 м/с2 %
    09:00Ясно и безоблачно+22°C47 %693 мм1.8 м/с2 %
    12:00Ясно и безоблачно+27°C34 %693 мм2.1 м/с4 %
    15:00Ясно и безоблачно+30°C27 %692 мм2.4 м/с6 %
    18:00Ясно и безоблачно+29°C27 %691 мм2.4 м/с5 %
    21:00Ясно и безоблачно+24°C26 %691 мм2.8 м/с2 %
  • 06сентября
    Воскресенье
    +16°
    +32°
    Ясно и безоблачно
    ВремяПогодаТемператураВлажностьДавлениеВетер, м/сВероятность осадков
    00:00Ясно и безоблачно+21°C35 %692 мм2.3 м/с2 %
    03:00Ясно и безоблачно+18°C43 %691 мм2.0 м/с2 %
    06:00Ясно и безоблачно+16°C54 %691 мм1.7 м/с2 %
    09:00Ясно и безоблачно+23°C42 %693 мм1.3 м/с2 %
    12:00Ясно и безоблачно+28°C30 %693 мм2.3 м/с2 %
    15:00Ясно и безоблачно+31°C23 %693 мм2.3 м/с2 %
    18:00Ясно и безоблачно+30°C23 %692 мм3.4 м/с2 %
    21:00Ясно и безоблачно+25°C34 %693 мм3.4 м/с2 %
  • 07сентября
    Понедельник
    +11°
    +29°
    Ясно и безоблачно
    ВремяПогодаТемператураВлажностьДавлениеВетер, м/сВероятность осадков
    03:00Ясно и безоблачно+19°C49 %694 мм2.1 м/с2 %
    09:00Ясно и безоблачно+22°C48 %695 мм2.3 м/с2 %
    15:00Ясно и безоблачно+28°C24 %695 мм2.7 м/с2 %
    21:00Ясно и безоблачно+21°C37 %694 мм3.5 м/с2 %
  • 08сентября
    Вторник
    +11°
    +26°
    Ясно и безоблачно
    ВремяПогодаТемператураВлажностьДавлениеВетер, м/сВероятность осадков
    03:00Ясно и безоблачно+14°C63 %693 мм2.2 м/с2 %
    09:00Ясно и безоблачно+16°C59 %694 мм2.5 м/с2 %
    15:00Ясно и безоблачно+25°C27 %693 мм2.3 м/с2 %
    21:00Ясно и безоблачно+21°C37 %691 мм2.3 м/с2 %
Мы используем cookies
Соглашаюсь